createdAt,value
2018-10-05T12:08:14.535Z,46.20
2018-10-05T12:08:53.327Z,47.79
2018-10-05T12:09:53.320Z,47.99
2018-10-05T12:10:53.331Z,46.66
2018-10-05T12:11:53.296Z,44.04
2018-10-05T12:12:53.283Z,46.60
2018-10-05T12:13:53.371Z,45.87
2018-10-05T12:14:53.259Z,45.39
2018-10-05T12:15:53.274Z,47.61
2018-10-05T12:17:15.113Z,46.48
2018-10-05T12:17:53.244Z,46.46
2018-10-05T12:18:53.230Z,46.15
2018-10-05T12:19:53.299Z,45.35
2018-10-05T12:20:53.196Z,44.95
2018-10-05T12:22:05.477Z,46.84
2018-10-05T12:23:14.925Z,44.23
2018-10-05T12:23:53.157Z,45.23
2018-10-05T12:24:54.167Z,44.23
2018-10-05T12:25:53.181Z,44.93
2018-10-05T12:26:53.209Z,43.42
2018-10-05T12:27:53.126Z,44.43
2018-10-05T12:28:53.106Z,45.63
2018-10-05T12:29:53.080Z,46.22
2018-10-05T12:30:53.076Z,45.01
2018-10-05T12:31:53.077Z,43.10
2018-10-05T12:32:55.883Z,43.60
2018-10-05T12:33:53.038Z,45.71
2018-10-05T12:34:53.030Z,43.52
2018-10-05T12:35:53.040Z,43.52
2018-10-05T12:36:53.056Z,44.24
2018-10-05T12:37:53.015Z,44.95
2018-10-05T12:38:53.029Z,46.46
2018-10-05T12:39:52.966Z,46.03
2018-10-05T12:40:52.958Z,44.53
2018-10-05T12:41:52.993Z,43.92
2018-10-05T12:42:52.978Z,44.02
2018-10-05T12:44:05.105Z,44.32
2018-10-05T12:44:52.925Z,44.10
2018-10-05T12:45:52.915Z,46.22
2018-10-05T12:46:52.900Z,46.69
2018-10-05T12:47:52.875Z,45.59
2018-10-05T12:48:52.861Z,45.87
2018-10-05T12:49:52.894Z,44.54
2018-10-05T12:50:52.856Z,43.24
2018-10-05T12:51:52.853Z,45.75
2018-10-05T12:52:52.832Z,44.44
2018-10-05T12:53:52.829Z,43.22
2018-10-05T12:54:52.816Z,45.83
2018-10-05T12:55:52.801Z,45.12
2018-10-05T12:56:52.775Z,45.22
2018-10-05T12:57:52.764Z,46.20
2018-10-05T12:58:52.771Z,43.42
2018-10-05T12:59:52.775Z,45.10
2018-10-05T13:00:52.776Z,45.30
2018-10-05T13:01:52.732Z,42.99
2018-10-05T13:02:52.730Z,41.82
2018-10-05T13:03:52.728Z,41.13
2018-10-05T13:04:52.735Z,42.46
2018-10-05T13:05:52.684Z,42.58
2018-10-05T13:06:52.691Z,41.87
2018-10-05T13:07:52.660Z,42.80
2018-10-05T13:08:52.671Z,43.60
2018-10-05T13:09:52.630Z,43.42
2018-10-05T13:10:52.676Z,43.72
2018-10-05T13:11:52.647Z,43.22
2018-10-05T13:12:52.644Z,43.02
2018-10-05T13:13:52.594Z,43.72
2018-10-05T13:14:52.608Z,43.50
2018-10-05T13:15:52.571Z,42.32
2018-10-05T13:16:52.584Z,42.52
2018-10-05T13:17:52.562Z,43.62
2018-10-05T13:18:52.549Z,42.52
2018-10-05T13:19:52.550Z,42.21
2018-10-05T13:20:52.501Z,43.82
2018-10-05T13:21:52.554Z,43.42
2018-10-05T13:22:52.493Z,43.44
2018-10-05T13:23:52.487Z,44.93
2018-10-05T13:24:52.506Z,43.52
2018-10-05T13:25:52.475Z,43.12
2018-10-05T13:26:52.434Z,43.60
2018-10-05T13:27:52.448Z,44.00
2018-10-05T13:28:52.423Z,44.40
2018-10-05T13:29:52.400Z,43.08
2018-10-05T13:30:52.402Z,44.18
2018-10-05T13:31:52.404Z,42.47
2018-10-05T13:32:52.381Z,43.76
2018-10-05T13:33:52.428Z,41.75
2018-10-05T13:34:52.346Z,43.46
2018-10-05T13:35:52.347Z,40.47
2018-10-05T13:36:52.346Z,43.58
2018-10-05T13:37:52.350Z,42.58
2018-10-05T13:38:52.335Z,41.19
2018-10-05T13:39:52.292Z,43.10
2018-10-05T13:40:52.285Z,43.90
2018-10-05T13:41:52.331Z,41.19
2018-10-05T13:42:52.307Z,45.81
2018-10-05T13:43:52.257Z,43.60
2018-10-05T13:44:52.286Z,45.29
2018-10-05T13:45:52.235Z,43.88
2018-10-05T13:46:52.222Z,43.98
2018-10-05T13:47:52.215Z,43.68
2018-10-05T13:48:52.221Z,43.16
2018-10-05T13:49:52.210Z,42.97
2018-10-05T13:50:52.174Z,44.18
2018-10-05T13:51:52.150Z,42.58
2018-10-05T13:52:52.149Z,43.40
2018-10-05T13:53:52.153Z,43.30
2018-10-05T13:54:52.164Z,43.64
2018-10-05T13:55:52.118Z,44.95
2018-10-05T13:56:52.110Z,45.35
2018-10-05T13:57:52.123Z,44.55
2018-10-05T13:58:52.083Z,43.54
2018-10-05T13:59:52.092Z,44.39
2018-10-05T14:00:52.067Z,43.99
2018-10-05T14:01:52.050Z,45.90
2018-10-05T14:02:52.137Z,45.29
2018-10-05T14:03:52.016Z,45.90
2018-10-05T14:04:52.041Z,45.07
2018-10-05T14:05:52.022Z,45.78
2018-10-05T14:06:52.039Z,44.97
2018-10-05T14:07:51.999Z,47.49
2018-10-05T14:08:52.008Z,45.07
2018-10-05T14:09:51.964Z,45.00
2018-10-05T14:10:51.954Z,45.21
2018-10-05T14:11:51.941Z,46.22
2018-10-05T14:12:51.943Z,45.92
2018-10-05T14:13:51.941Z,46.02
2018-10-05T14:14:51.948Z,46.45
2018-10-05T14:15:51.907Z,46.55
2018-10-05T14:16:51.876Z,46.55
2018-10-05T14:17:51.875Z,46.34
2018-10-05T14:18:51.862Z,46.34
2018-10-05T14:19:51.853Z,46.42
2018-10-05T14:20:51.864Z,46.62
2018-10-05T14:21:51.917Z,46.22
2018-10-05T14:22:51.833Z,46.22
2018-10-05T14:23:51.812Z,46.42
2018-10-05T14:24:51.791Z,48.52
2018-10-05T14:25:51.777Z,46.40
2018-10-05T14:26:51.775Z,46.10
2018-10-05T14:27:51.775Z,46.10
2018-10-05T14:28:51.748Z,46.30
2018-10-05T14:29:51.719Z,46.40
2018-10-05T14:30:51.720Z,46.20
2018-10-05T14:31:51.760Z,48.52
2018-10-05T14:32:51.703Z,47.39
2018-10-05T14:33:51.716Z,46.58
2018-10-05T14:34:51.689Z,46.78
2018-10-05T14:35:51.666Z,45.87
2018-10-05T14:36:51.667Z,46.60
2018-10-05T14:37:51.687Z,46.40
2018-10-05T14:38:51.640Z,48.09
2018-10-05T14:39:51.633Z,46.48
2018-10-05T14:40:51.608Z,45.79
2018-10-05T14:41:51.642Z,46.22
2018-10-05T14:42:51.976Z,47.31
2018-10-05T14:43:51.574Z,47.41
2018-10-05T14:44:51.580Z,48.52
2018-10-05T14:45:51.635Z,46.50
2018-10-05T14:46:51.557Z,46.00
2018-10-05T14:47:51.526Z,46.22
2018-10-05T14:48:51.571Z,47.05
2018-10-05T14:49:51.512Z,46.57
2018-10-05T14:50:51.499Z,48.10
2018-10-05T14:51:51.489Z,48.30
2018-10-05T14:52:51.477Z,49.59
2018-10-05T14:53:51.511Z,49.59
2018-10-05T14:54:51.465Z,48.36
2018-10-05T14:55:51.445Z,48.56
2018-10-05T14:56:51.438Z,48.74
2018-10-05T14:57:57.212Z,47.53
2018-10-05T14:58:51.513Z,46.55
2018-10-05T14:59:51.395Z,47.38
2018-10-05T15:00:51.367Z,48.50
2018-10-05T15:01:51.388Z,49.56
2018-10-05T15:02:51.342Z,50.37
2018-10-05T15:03:51.348Z,50.47
2018-10-05T15:04:51.345Z,50.37
2018-10-05T15:05:51.309Z,51.28
2018-10-05T15:06:51.305Z,50.47
2018-10-05T15:07:51.292Z,50.55
2018-10-05T15:08:51.339Z,49.96
2018-10-05T15:09:51.290Z,51.68
2018-10-05T15:10:51.257Z,51.25
2018-10-05T15:11:51.240Z,49.64
2018-10-05T15:12:51.312Z,49.33
2018-10-05T15:13:51.240Z,50.87
2018-10-05T15:14:51.216Z,49.66
2018-10-05T15:15:51.209Z,51.38
2018-10-05T15:16:51.184Z,51.48
2018-10-05T15:17:51.179Z,51.68
2018-10-05T15:18:51.194Z,51.68
2018-10-05T15:19:51.166Z,51.28
2018-10-05T15:20:51.145Z,50.35
2018-10-05T15:21:51.146Z,50.45
2018-10-05T15:22:51.123Z,49.74
2018-10-05T15:23:51.120Z,51.28
2018-10-05T15:24:51.125Z,51.25
2018-10-05T15:25:51.087Z,51.45
2018-10-05T15:26:51.074Z,49.64
2018-10-05T15:27:51.073Z,50.57
2018-10-05T15:28:51.057Z,51.18
2018-10-05T15:29:51.038Z,49.76
2018-10-05T15:30:51.041Z,50.07
2018-10-05T15:31:51.023Z,51.81
2018-10-05T15:32:51.097Z,51.50
2018-10-05T15:33:51.034Z,52.92
2018-10-05T15:34:50.985Z,52.44
2018-10-05T15:35:50.991Z,51.32
2018-10-05T15:36:50.962Z,51.53
2018-10-05T15:37:50.947Z,52.54
2018-10-05T15:38:51.017Z,51.32
2018-10-05T15:39:50.949Z,52.56
2018-10-05T15:40:50.933Z,52.56
2018-10-05T15:41:50.906Z,52.16
2018-10-05T15:42:50.894Z,52.16
2018-10-05T15:43:50.878Z,53.38
2018-10-05T15:44:50.872Z,53.47
2018-10-05T15:45:50.913Z,52.26
2018-10-05T15:46:50.848Z,52.36
2018-10-05T15:47:50.841Z,52.59
2018-10-05T15:48:50.834Z,52.89
2018-10-05T15:49:50.817Z,53.30
2018-10-05T15:50:50.800Z,53.80
2018-10-05T15:51:50.822Z,53.98
2018-10-05T15:52:50.828Z,54.00
2018-10-05T15:53:50.765Z,53.38
2018-10-05T15:54:50.761Z,53.60
2018-10-05T15:55:50.748Z,54.61
2018-10-05T15:56:50.738Z,53.90
2018-10-05T15:57:50.745Z,53.40
2018-10-05T15:58:50.712Z,53.72
2018-10-05T15:59:50.697Z,53.96
2018-10-05T16:00:50.689Z,55.17
2018-10-05T16:01:50.686Z,56.18
2018-10-05T16:02:50.691Z,55.98
2018-10-05T16:03:50.668Z,55.17
2018-10-05T16:04:50.643Z,55.88
2018-10-05T16:05:50.695Z,56.08
2018-10-05T16:06:50.618Z,55.88
2018-10-05T16:07:50.617Z,56.48
2018-10-05T16:08:50.619Z,56.28
2018-10-05T16:09:50.598Z,56.10
2018-10-05T16:10:50.574Z,56.41
2018-10-05T16:11:50.572Z,56.51
2018-10-05T16:12:50.614Z,56.23
2018-10-05T16:13:50.575Z,56.95
2018-10-05T16:14:50.528Z,57.07
2018-10-05T16:15:50.527Z,57.81
2018-10-05T16:16:50.509Z,57.53
2018-10-05T16:17:50.500Z,58.14
2018-10-05T16:18:50.483Z,58.85
2018-10-05T16:19:50.496Z,59.26
2018-10-05T16:20:50.465Z,58.65
2018-10-05T16:21:50.465Z,58.88
2018-10-05T16:22:50.439Z,58.98
2018-10-05T16:23:50.427Z,59.48
2018-10-05T16:24:50.520Z,59.48
2018-10-05T16:25:50.417Z,59.48
2018-10-05T16:26:50.395Z,59.28
2018-10-05T16:27:50.395Z,59.39
2018-10-05T16:28:50.382Z,60.02
2018-10-05T16:29:50.358Z,60.63
2018-10-05T16:30:50.360Z,60.53
2018-10-05T16:31:50.334Z,60.53
2018-10-05T16:32:50.337Z,60.43
2018-10-05T16:33:50.332Z,60.63
2018-10-05T16:34:50.299Z,60.43
2018-10-05T16:35:50.297Z,60.33
2018-10-05T16:36:50.286Z,60.83
2018-10-05T16:37:50.275Z,61.04
2018-10-05T16:38:50.257Z,60.97
2018-10-05T16:39:50.256Z,61.17
2018-10-05T16:40:50.943Z,61.27
2018-10-05T16:41:50.224Z,61.71
2018-10-05T16:42:50.208Z,61.68
2018-10-05T16:43:50.284Z,61.81
2018-10-05T16:44:50.190Z,62.01
2018-10-05T16:45:50.219Z,62.01
2018-10-05T16:46:50.160Z,62.21
2018-10-05T16:47:50.154Z,62.32
2018-10-05T16:48:50.150Z,62.21
2018-10-05T16:49:50.183Z,62.32
2018-10-05T16:50:50.131Z,62.41
2018-10-05T16:51:50.131Z,62.62
2018-10-05T16:52:50.097Z,62.55
2018-10-05T16:53:50.092Z,62.65
2018-10-05T16:54:50.072Z,62.96
2018-10-05T16:55:50.083Z,63.06
2018-10-05T16:56:50.050Z,63.06
2018-10-05T16:57:50.054Z,63.49
2018-10-05T16:58:50.022Z,63.70
2018-10-05T16:59:50.020Z,64.00
2018-10-05T17:00:50.016Z,64.00
2018-10-05T17:01:49.992Z,63.59
2018-10-05T17:02:49.992Z,65.33
2018-10-05T17:03:50.054Z,64.00
2018-10-05T17:04:49.963Z,64.20
2018-10-05T17:05:49.965Z,64.31
2018-10-05T17:06:49.936Z,64.31
2018-10-05T17:07:49.926Z,64.54
2018-10-05T17:08:49.921Z,65.05
2018-10-05T17:09:49.904Z,65.25
2018-10-05T17:10:49.998Z,64.84
2018-10-05T17:11:49.892Z,65.36
2018-10-05T17:12:49.871Z,66.27
2018-10-05T17:13:49.868Z,65.56
2018-10-05T17:14:49.859Z,65.97
2018-10-05T17:15:49.867Z,65.16
2018-10-05T17:16:49.822Z,65.56
2018-10-05T17:17:49.815Z,65.56
2018-10-05T17:18:49.800Z,66.10
2018-10-05T17:19:49.792Z,65.89
2018-10-05T17:20:49.804Z,66.20
2018-10-05T17:21:49.766Z,65.89
2018-10-05T17:22:49.757Z,66.30
2018-10-05T17:23:49.745Z,66.91
2018-10-05T17:24:49.737Z,66.74
2018-10-05T17:25:49.736Z,66.23
2018-10-05T17:26:49.726Z,67.32
2018-10-05T17:27:49.700Z,66.91
2018-10-05T17:28:49.692Z,67.25
2018-10-05T17:29:49.683Z,66.74
2018-10-05T17:30:49.677Z,66.74
2018-10-05T17:31:49.654Z,66.94
2018-10-05T17:32:49.662Z,66.74
2018-10-05T17:33:49.629Z,66.54
2018-10-05T17:34:49.621Z,66.64
2018-10-05T17:35:49.618Z,67.32
2018-10-05T17:36:49.593Z,66.74
2018-10-05T17:37:49.623Z,66.44
2018-10-05T17:38:49.590Z,66.64
2018-10-05T17:39:49.563Z,67.46
2018-10-05T17:40:49.562Z,66.44
2018-10-05T17:41:49.533Z,67.05
2018-10-05T17:42:49.531Z,66.13
2018-10-05T17:43:49.520Z,66.74
2018-10-05T17:44:49.527Z,66.74
2018-10-05T17:45:49.513Z,66.74
2018-10-05T17:46:49.483Z,67.35
2018-10-05T17:47:49.473Z,66.85
2018-10-05T17:48:49.468Z,66.85
2018-10-05T17:49:49.458Z,66.94
2018-10-05T17:50:49.472Z,67.15
2018-10-05T17:51:49.427Z,67.18
2018-10-05T17:52:49.415Z,66.74
2018-10-05T17:53:49.405Z,66.47
2018-10-05T17:54:49.394Z,66.85
2018-10-05T17:55:49.489Z,67.38
2018-10-05T17:56:49.394Z,66.57
2018-10-05T17:57:49.356Z,66.57
2018-10-05T17:58:49.349Z,67.38
2018-10-05T17:59:49.338Z,67.08
2018-10-05T18:00:49.331Z,66.97
2018-10-05T18:01:49.338Z,66.88
2018-10-05T18:02:49.310Z,67.29
2018-10-05T18:03:49.289Z,67.72
2018-10-05T18:04:49.950Z,67.52
2018-10-05T18:05:49.275Z,67.72
2018-10-05T18:06:49.263Z,68.03
2018-10-05T18:07:49.244Z,68.06
2018-10-05T18:08:49.245Z,68.98
2018-10-05T18:09:49.224Z,67.96
2018-10-05T18:10:49.225Z,69.29
2018-10-05T18:11:49.195Z,68.67
2018-10-05T18:12:49.195Z,68.60
2018-10-05T18:13:49.175Z,69.11
2018-10-05T18:14:49.230Z,69.42
2018-10-05T18:15:49.172Z,69.42
2018-10-05T18:16:49.142Z,69.65
2018-10-05T18:17:49.131Z,69.93
2018-10-05T18:18:49.123Z,69.04
2018-10-05T18:19:49.110Z,70.06
2018-10-05T18:20:49.122Z,70.06
2018-10-05T18:21:49.080Z,70.17
2018-10-05T18:22:49.072Z,69.86
2018-10-05T18:23:49.074Z,70.68
2018-10-05T18:24:49.043Z,70.68
2018-10-05T18:25:49.059Z,71.19
2018-10-05T18:26:49.041Z,70.71
2018-10-05T18:27:49.003Z,70.71
2018-10-05T18:28:48.998Z,70.71
2018-10-05T18:29:48.990Z,71.33
2018-10-05T18:30:49.011Z,71.33
2018-10-05T18:31:48.982Z,71.22
2018-10-05T18:32:48.981Z,71.73
2018-10-05T18:33:49.003Z,71.77
2018-10-05T18:34:48.931Z,72.28
2018-10-05T18:35:48.929Z,72.07
2018-10-05T18:36:48.908Z,71.56
2018-10-05T18:37:48.898Z,72.28
2018-10-05T18:38:48.883Z,72.48
2018-10-05T18:39:48.895Z,72.28
2018-10-05T18:40:48.880Z,71.97
2018-10-05T18:41:48.851Z,71.83
2018-10-05T18:42:48.838Z,71.73
2018-10-05T18:43:48.818Z,71.97
2018-10-05T18:44:48.809Z,72.48
2018-10-05T18:45:48.840Z,72.58
2018-10-05T18:46:48.808Z,72.58
2018-10-05T18:47:48.778Z,72.48
2018-10-05T18:48:48.762Z,72.48
2018-10-05T18:49:48.751Z,72.58
2018-10-05T18:50:48.771Z,72.58
2018-10-05T18:51:48.744Z,73.40
2018-10-05T18:52:48.740Z,72.99
2018-10-05T18:53:48.712Z,72.79
2018-10-05T18:54:48.687Z,72.99
2018-10-05T18:55:48.694Z,72.99
2018-10-05T18:56:48.674Z,73.10
2018-10-05T18:57:48.671Z,72.82
2018-10-05T18:58:48.668Z,72.92
2018-10-05T18:59:48.636Z,73.20
2018-10-05T19:00:48.618Z,73.54
2018-10-05T19:01:48.611Z,73.03
2018-10-05T19:02:48.599Z,73.13
2018-10-05T19:03:48.612Z,73.64
2018-10-05T19:04:48.581Z,73.94
2018-10-05T19:05:48.564Z,73.98
2018-10-05T19:06:48.569Z,74.05
2018-10-05T19:07:48.545Z,73.85
2018-10-05T19:08:49.040Z,73.68
2018-10-05T19:09:48.534Z,74.19
2018-10-05T19:10:48.502Z,73.68
2018-10-05T19:11:48.499Z,73.98
2018-10-05T19:12:48.492Z,74.08
2018-10-05T19:13:48.566Z,74.29
2018-10-05T19:14:48.463Z,74.39
2018-10-05T19:15:48.462Z,74.63
2018-10-05T19:16:48.964Z,74.53
2018-10-05T19:17:48.961Z,74.53
2018-10-05T19:18:48.507Z,74.53
2018-10-05T19:19:48.399Z,74.22
2018-10-05T19:20:48.402Z,75.24
2018-10-05T19:21:48.400Z,74.73
2018-10-05T19:22:48.375Z,74.84
2018-10-05T19:23:48.376Z,74.94
2018-10-05T19:24:48.343Z,74.63
2018-10-05T19:25:48.340Z,75.14
2018-10-05T19:26:48.329Z,75.14
2018-10-05T19:28:07.400Z,75.96
2018-10-05T19:35:49.135Z,75.96
2018-10-05T19:36:48.143Z,75.96
2018-10-05T19:37:48.606Z,76.27
2018-10-05T19:38:48.219Z,75.28
2018-10-05T19:39:48.189Z,75.76
2018-10-05T19:40:50.608Z,75.99
2018-10-05T19:41:53.519Z,75.45
2018-10-05T19:42:47.936Z,75.59
2018-10-05T19:43:49.443Z,75.79
2018-10-05T19:44:49.482Z,76.40
2018-10-05T19:45:48.881Z,76.31
2018-10-05T19:46:49.451Z,75.38
2018-10-05T19:47:47.842Z,76.40
2018-10-05T19:48:48.746Z,75.82
2018-10-05T19:49:47.700Z,76.65
2018-10-05T19:50:47.739Z,76.54
2018-10-05T19:51:48.678Z,77.87
2018-10-05T19:52:47.714Z,76.95
2018-10-05T19:53:47.697Z,76.85
2018-10-05T19:54:47.662Z,76.95
2018-10-05T19:55:47.636Z,77.06
2018-10-05T19:56:47.618Z,76.95
2018-10-05T19:57:47.610Z,77.91
2018-10-05T19:58:48.334Z,77.47
2018-10-05T19:59:47.672Z,77.50
2018-10-05T20:00:47.590Z,78.22
2018-10-05T20:01:47.633Z,78.53
2018-10-05T20:02:47.556Z,78.74
2018-10-05T20:03:47.568Z,78.02
2018-10-05T20:04:47.546Z,77.61
2018-10-05T20:05:47.529Z,77.71
2018-10-05T20:06:47.546Z,78.05
2018-10-05T20:07:47.512Z,78.42
2018-10-05T20:08:47.551Z,78.83
2018-10-05T20:09:47.504Z,78.56
2018-10-05T20:10:47.499Z,78.56
2018-10-05T20:11:47.502Z,78.56
2018-10-05T20:12:47.447Z,78.77
2018-10-05T20:13:47.480Z,78.97
2018-10-05T20:14:47.457Z,80.00
2018-10-05T20:15:47.411Z,79.38
2018-10-05T20:16:47.406Z,79.49
2018-10-05T20:17:47.494Z,79.18
2018-10-05T20:18:47.399Z,78.56
2018-10-05T20:19:47.365Z,79.08
2018-10-05T20:20:47.356Z,79.28
2018-10-05T20:21:47.343Z,79.69
2018-10-05T20:22:47.341Z,78.91
2018-10-05T20:23:47.383Z,79.52
2018-10-05T20:24:47.332Z,80.04
2018-10-05T20:25:47.304Z,79.83
2018-10-05T20:26:47.291Z,79.42
2018-10-05T20:27:47.339Z,80.04
2018-10-05T20:28:47.334Z,79.83
2018-10-05T20:29:47.266Z,79.87
2018-10-05T20:30:48.813Z,79.97
2018-10-05T20:31:47.277Z,80.18
2018-10-05T20:32:47.241Z,80.38
2018-10-05T20:33:47.237Z,80.38
2018-10-05T20:34:47.376Z,80.38
2018-10-05T20:35:47.194Z,80.69
2018-10-05T20:36:47.344Z,80.69
2018-10-05T20:37:47.396Z,80.58
2018-10-05T20:38:47.270Z,82.33
2018-10-05T20:39:47.258Z,82.29
2018-10-05T20:40:48.153Z,81.92
2018-10-05T20:41:47.581Z,82.40
2018-10-05T20:42:47.163Z,82.40
2018-10-05T20:43:47.105Z,82.26
2018-10-05T20:44:47.104Z,81.74
2018-10-05T20:45:47.114Z,81.43
2018-10-05T20:46:47.815Z,80.00
2018-10-05T20:47:47.069Z,81.20
2018-10-05T20:48:47.075Z,81.40
2018-10-05T20:49:48.046Z,80.78
2018-10-05T20:50:47.052Z,80.47
2018-10-05T20:51:47.156Z,80.44
2018-10-05T20:52:47.824Z,80.07
2018-10-05T20:53:47.039Z,80.44
2018-10-05T20:54:46.984Z,80.44
2018-10-05T20:55:46.988Z,80.64
2018-10-05T20:56:46.959Z,80.64
2018-10-05T20:57:46.957Z,80.74
2018-10-05T20:58:46.950Z,80.33
2018-10-05T20:59:46.939Z,80.40
2018-10-05T21:00:46.941Z,80.51
2018-10-05T21:01:46.922Z,80.51
2018-10-05T21:02:46.898Z,80.30
2018-10-05T21:03:46.884Z,79.75
2018-10-05T21:04:46.869Z,79.24
2018-10-05T21:05:46.882Z,79.71
2018-10-05T21:06:46.919Z,78.38
2018-10-05T21:07:46.874Z,77.67
2018-10-05T21:08:46.839Z,78.08
2018-10-05T21:09:47.908Z,77.73
2018-10-05T21:10:46.823Z,77.97
2018-10-05T21:11:46.835Z,77.67
2018-10-05T21:12:46.822Z,78.28
2018-10-05T21:13:46.779Z,78.28
2018-10-05T21:14:46.765Z,77.97
2018-10-05T21:15:46.762Z,79.00
2018-10-05T21:16:47.742Z,78.28
2018-10-05T21:17:46.762Z,79.20
2018-10-05T21:18:46.725Z,77.83
2018-10-05T21:19:46.775Z,78.65
2018-10-05T21:20:47.719Z,78.45
2018-10-05T21:21:47.308Z,78.14
2018-10-05T21:22:46.673Z,77.94
2018-10-05T21:23:46.663Z,78.24
2018-10-05T21:24:46.672Z,77.83
2018-10-05T21:25:46.644Z,78.34
2018-10-05T21:26:46.662Z,78.14
2018-10-05T21:27:46.615Z,78.04
2018-10-05T21:28:46.603Z,77.63
2018-10-05T21:29:46.598Z,77.73
2018-10-05T21:30:46.585Z,78.14
2018-10-05T21:31:46.606Z,77.76
2018-10-05T21:32:46.650Z,78.17
2018-10-05T21:33:47.552Z,78.28
2018-10-05T21:34:46.551Z,78.55
2018-10-05T21:35:46.547Z,77.83
2018-10-05T21:36:46.553Z,77.53
2018-10-05T21:37:46.501Z,77.53
2018-10-05T21:38:46.879Z,77.32
2018-10-05T21:39:47.316Z,77.32
2018-10-05T21:40:46.535Z,76.40
2018-10-05T21:41:46.462Z,76.40
2018-10-05T21:42:46.452Z,76.50
2018-10-05T21:43:46.462Z,76.91
2018-10-05T21:44:46.468Z,77.73
2018-10-05T21:45:46.420Z,77.76
2018-10-05T21:46:46.433Z,77.36
2018-10-05T21:47:46.433Z,77.53
2018-10-05T21:48:46.406Z,77.56
2018-10-05T21:49:46.373Z,78.08
2018-10-05T21:50:46.366Z,77.56
2018-10-05T21:51:46.359Z,77.46
2018-10-05T21:52:46.348Z,77.60
2018-10-05T21:53:46.391Z,77.60
2018-10-05T21:54:47.319Z,78.52
2018-10-05T21:55:46.314Z,79.00
2018-10-05T21:56:46.313Z,78.72
2018-10-05T21:57:46.288Z,78.31
2018-10-05T21:58:46.302Z,77.91
2018-10-05T21:59:46.275Z,78.31
2018-10-05T22:00:46.244Z,78.21
2018-10-05T22:01:46.242Z,78.45
2018-10-05T22:02:46.216Z,77.63
2018-10-05T22:03:46.225Z,76.57
2018-10-05T22:04:46.202Z,76.26
2018-10-05T22:05:46.202Z,75.65
2018-10-05T22:06:46.192Z,75.79
2018-10-05T22:07:46.168Z,75.68
2018-10-05T22:08:46.183Z,75.99
2018-10-05T22:09:46.150Z,76.30
2018-10-05T22:10:46.130Z,77.05
2018-10-05T22:11:46.121Z,76.95
2018-10-05T22:12:46.127Z,77.87
2018-10-05T22:13:47.327Z,78.11
2018-10-05T22:14:46.141Z,77.60
2018-10-05T22:15:46.080Z,78.35
2018-10-05T22:16:46.074Z,78.15
2018-10-05T22:17:46.058Z,78.45
2018-10-05T22:18:46.032Z,79.11
2018-10-05T22:19:46.117Z,79.72
2018-10-05T22:20:46.028Z,80.33
2018-10-05T22:21:46.077Z,79.93
2018-10-05T22:22:46.075Z,79.82
2018-10-05T22:23:45.984Z,80.58
2018-10-05T22:24:45.994Z,80.68
2018-10-05T22:25:45.988Z,81.71
2018-10-05T22:26:45.973Z,80.99
2018-10-05T22:27:46.830Z,81.09
2018-10-05T22:28:45.925Z,81.20
2018-10-05T22:29:45.981Z,81.09
2018-10-05T22:30:46.813Z,81.50
2018-10-05T22:31:45.921Z,81.50
2018-10-05T22:32:45.892Z,81.77
2018-10-05T22:33:45.879Z,81.87
2018-10-05T22:34:45.863Z,81.57
2018-10-05T22:35:45.878Z,80.60
2018-10-05T22:36:46.848Z,80.46
2018-10-05T22:37:45.828Z,79.75
2018-10-05T22:38:45.819Z,78.59
2018-10-05T22:39:45.806Z,78.49
2018-10-05T22:40:45.807Z,77.97
2018-10-05T22:41:45.779Z,78.24
2018-10-05T22:42:45.776Z,77.73
2018-10-05T22:43:45.809Z,77.42
2018-10-05T22:44:45.780Z,77.53
2018-10-05T22:45:45.777Z,77.22
2018-10-05T22:46:45.719Z,77.32
2018-10-05T22:47:45.721Z,77.42
2018-10-05T22:48:45.698Z,77.67
2018-10-05T22:49:45.690Z,77.36
2018-10-05T22:50:45.705Z,77.67
2018-10-05T22:51:45.663Z,77.67
2018-10-05T22:52:45.684Z,77.67
2018-10-05T22:53:45.659Z,77.76
2018-10-05T22:54:45.626Z,77.76
2018-10-05T22:55:45.620Z,77.42
2018-10-05T22:56:45.637Z,77.73
2018-10-05T22:57:45.610Z,77.83
2018-10-05T22:58:45.579Z,77.53
2018-10-05T22:59:45.568Z,77.32
2018-10-05T23:00:45.597Z,77.32
2018-10-05T23:01:45.592Z,77.63
2018-10-05T23:02:45.536Z,77.73
2018-10-05T23:03:45.560Z,77.63
2018-10-05T23:04:45.524Z,76.91
2018-10-05T23:05:46.314Z,76.16
2018-10-05T23:06:45.506Z,76.16
2018-10-05T23:07:45.539Z,76.26
2018-10-05T23:08:45.482Z,76.16
2018-10-05T23:09:45.486Z,75.85
2018-10-05T23:10:45.459Z,76.26
2018-10-05T23:11:45.444Z,75.75
2018-10-05T23:12:45.450Z,76.26
2018-10-05T23:13:45.498Z,76.26
2018-10-05T23:14:45.411Z,76.06
2018-10-05T23:15:45.423Z,76.37
2018-10-05T23:16:45.383Z,76.26
2018-10-05T23:17:45.400Z,76.26
2018-10-05T23:18:45.398Z,76.16
2018-10-05T23:19:46.350Z,76.16
2018-10-05T23:20:45.347Z,76.06
2018-10-05T23:21:45.328Z,76.37
2018-10-05T23:22:45.355Z,76.37
2018-10-05T23:23:45.328Z,76.37
2018-10-05T23:24:45.296Z,75.24
2018-10-05T23:25:45.287Z,75.85
2018-10-05T23:26:45.323Z,75.96
2018-10-05T23:27:45.260Z,75.71
2018-10-05T23:28:45.270Z,76.12
2018-10-05T23:29:45.265Z,75.92
2018-10-05T23:30:45.220Z,75.71
2018-10-05T23:31:45.249Z,75.92
2018-10-05T23:32:45.206Z,75.21
2018-10-05T23:33:45.211Z,75.71
2018-10-05T23:34:45.815Z,75.75
2018-10-05T23:35:45.200Z,75.85
2018-10-05T23:36:45.158Z,75.55
2018-10-05T23:37:45.148Z,76.20
2018-10-05T23:38:45.130Z,76.20
2018-10-05T23:39:45.157Z,76.61
2018-10-05T23:40:45.110Z,76.71
2018-10-05T23:41:45.093Z,76.81
2018-10-05T23:42:45.119Z,76.75
2018-10-05T23:43:45.068Z,77.87
2018-10-05T23:44:45.051Z,77.46
2018-10-05T23:45:45.069Z,77.46
2018-10-05T23:46:45.078Z,76.75
2018-10-05T23:47:45.038Z,77.09
2018-10-05T23:48:45.030Z,77.80
2018-10-05T23:49:45.009Z,78.01
2018-10-05T23:50:45.010Z,78.11
2018-10-05T23:51:44.991Z,78.21
2018-10-05T23:52:44.971Z,78.56
2018-10-05T23:53:44.949Z,79.07
2018-10-05T23:54:44.955Z,78.52
2018-10-05T23:55:44.944Z,78.63
2018-10-05T23:56:44.943Z,78.42
2018-10-05T23:57:44.918Z,78.25
2018-10-05T23:58:44.899Z,78.76
2018-10-05T23:59:44.887Z,78.45
